Surfer-19001 — FAB5302 — position and weather

sailwx.info

Track history (hours):
 
Tides and Currents Weather Stations Pressure Air Temp Water Temp Dewpoint Dewpoint Depression Visibility Wind Speed Wind Dir Waves Ship Positions

Surfer-19001

Last reported at 2017-Nov-23 13:44 UTC. Time now 2017-Nov-24 07:27 UTC.
Position S 05°05' E 011°35'.

Length 19 m; draft 0.9 m.

Type: Ship. MMSI: 227211680.

Date/timePositionNaut miles runAvg speedWind from/ knotsBaromVisibWave heightAir tempDewpointWater temp
2017-Nov-23 13:44S 05°05' E 011°35'725.6
2017-Nov-23 13:29S 05°10' E 011°31'1020.6
2017-Nov-23 12:59S 05°17' E 011°23'715.0
2017-Nov-23 12:30S 05°12' E 011°28'8 1.7
2017-Nov-23 08:00S 05°04' E 011°28'1223.4
2017-Nov-23 07:30S 05°12' E 011°19'510.6
2017-Nov-23 07:00S 05°08' E 011°23'  
2017-Nov-19 10:22S 04°60' E 011°37'925.6
2017-Nov-19 10:00S 05°07' E 011°30'1224.5
2017-Nov-19 09:31S 05°17' E 011°24'918.3
2017-Nov-19 09:00S 05°10' E 011°30'11 0.5
2017-Nov-18 10:47S 05°00' E 011°34'723.5
2017-Nov-18 10:30S 05°05' E 011°29'1122.6
2017-Nov-18 10:01S 05°13' E 011°22'5 8.7
2017-Nov-18 09:29S 05°17' E 011°23'0 0.3
2017-Nov-18 08:55S 05°17' E 011°23'2 5.5
2017-Nov-18 08:30S 05°16' E 011°25'1020.7
2017-Nov-18 08:00S 05°08' E 011°32'9 0.4
2017-Nov-17 10:05S 04°60' E 011°30'226.2
2017-Nov-17 10:00S 05°01' E 011°28'1325.9
2017-Nov-17 09:30S 05°10' E 011°19'2 4.3
2017-Nov-17 09:00S 05°12' E 011°19'1326.8
2017-Nov-17 08:30S 05°15' E 011°32'3 6.7
2017-Nov-17 08:00S 05°14' E 011°35'9 0.5
2017-Nov-16 13:48S 05°05' E 011°32'827.4
2017-Nov-16 13:30S 05°11' E 011°28'714.0
2017-Nov-16 12:59S 05°17' E 011°23'918.1
2017-Nov-16 12:30S 05°10' E 011°28'9 2.0
2017-Nov-16 08:14S 05°02' E 011°30'726.3
2017-Nov-16 07:59S 05°06' E 011°25'1020.0
2017-Nov-16 07:30S 05°13' E 011°18'918.0
2017-Nov-16 07:00S 05°07' E 011°25'6 0.3
2017-Nov-15 09:15S 05°03' E 011°30'625.4
2017-Nov-15 09:00S 05°07' E 011°25'917.9
2017-Nov-15 08:30S 05°13' E 011°18'1019.6
2017-Nov-15 08:00S 05°06' E 011°25'6 0.3
2017-Nov-14 09:47S 05°07' E 011°31'622.5
2017-Nov-14 09:30S 05°12' E 011°27'710.9
2017-Nov-14 08:53S 05°17' E 011°23'0 1.2
2017-Nov-14 08:30S 05°17' E 011°24'1020.0
2017-Nov-14 08:00S 05°09' E 011°30'  
Track history (hours):
 
Tides and Currents Weather Stations Pressure Air Temp Water Temp Dewpoint Dewpoint Depression Visibility Wind Speed Wind Dir Waves Ship Positions

Surfer-19001

Last reported at 2017-Nov-23 13:44 UTC. Time now 2017-Nov-24 07:27 UTC.
Position S 05°05' E 011°35'.

Length 19 m; draft 0.9 m.

Type: Ship. MMSI: 227211680.

Date/timePositionNaut miles runAvg speedWind from/ knotsBaromVisibWave heightAir tempDewpointWater temp
2017-Nov-23 13:44S 05°05' E 011°35'725.6
2017-Nov-23 13:29S 05°10' E 011°31'1020.6
2017-Nov-23 12:59S 05°17' E 011°23'715.0
2017-Nov-23 12:30S 05°12' E 011°28'8 1.7
2017-Nov-23 08:00S 05°04' E 011°28'1223.4
2017-Nov-23 07:30S 05°12' E 011°19'510.6
2017-Nov-23 07:00S 05°08' E 011°23'  
2017-Nov-19 10:22S 04°60' E 011°37'925.6
2017-Nov-19 10:00S 05°07' E 011°30'1224.5
2017-Nov-19 09:31S 05°17' E 011°24'918.3
2017-Nov-19 09:00S 05°10' E 011°30'11 0.5
2017-Nov-18 10:47S 05°00' E 011°34'723.5
2017-Nov-18 10:30S 05°05' E 011°29'1122.6
2017-Nov-18 10:01S 05°13' E 011°22'5 8.7
2017-Nov-18 09:29S 05°17' E 011°23'0 0.3
2017-Nov-18 08:55S 05°17' E 011°23'2 5.5
2017-Nov-18 08:30S 05°16' E 011°25'1020.7
2017-Nov-18 08:00S 05°08' E 011°32'9 0.4
2017-Nov-17 10:05S 04°60' E 011°30'226.2
2017-Nov-17 10:00S 05°01' E 011°28'1325.9
2017-Nov-17 09:30S 05°10' E 011°19'2 4.3
2017-Nov-17 09:00S 05°12' E 011°19'1326.8
2017-Nov-17 08:30S 05°15' E 011°32'3 6.7
2017-Nov-17 08:00S 05°14' E 011°35'9 0.5
2017-Nov-16 13:48S 05°05' E 011°32'827.4
2017-Nov-16 13:30S 05°11' E 011°28'714.0
2017-Nov-16 12:59S 05°17' E 011°23'918.1
2017-Nov-16 12:30S 05°10' E 011°28'9 2.0
2017-Nov-16 08:14S 05°02' E 011°30'726.3
2017-Nov-16 07:59S 05°06' E 011°25'1020.0
2017-Nov-16 07:30S 05°13' E 011°18'918.0
2017-Nov-16 07:00S 05°07' E 011°25'6 0.3
2017-Nov-15 09:15S 05°03' E 011°30'625.4
2017-Nov-15 09:00S 05°07' E 011°25'917.9
2017-Nov-15 08:30S 05°13' E 011°18'1019.6
2017-Nov-15 08:00S 05°06' E 011°25'6 0.3
2017-Nov-14 09:47S 05°07' E 011°31'622.5
2017-Nov-14 09:30S 05°12' E 011°27'710.9
2017-Nov-14 08:53S 05°17' E 011°23'0 1.2
2017-Nov-14 08:30S 05°17' E 011°24'1020.0
2017-Nov-14 08:00S 05°09' E 011°30'  

Dump ship's entire track history